Terminal Aerodrome Forecast
Issued by NWS

Home | Current Version | Previous Version | Text Only | Print | Product List | Glossary On
Versions: 1 2 3 4 5 6 7 8 9 10 11 12 13 14 15
000
FTAK31 PAFA 300547
TAFAUN
TAF
PAUN 300547Z 3006/3106 22020G26KT 6SM RA BR SCT015 OVC025
     FM300800 24015G26KT 3SM RA BR OVC015
     FM301500 18013KT 5SM -RA BR OVC010=

USA.gov is the U.S. government's official web portal to all federal, state and local government web resources and services.